sensor_id;sensor_type;location;lat;lon;timestamp;P1;durP1;ratioP1;P2;durP2;ratioP2
16468;SDS011;8345;50.902;6.956;2023-04-25T00:01:00;10.57;;;4.47;;
16468;SDS011;8345;50.902;6.956;2023-04-25T00:03:28;11.30;;;4.40;;
16468;SDS011;8345;50.902;6.956;2023-04-25T00:05:56;6.20;;;4.43;;
16468;SDS011;8345;50.902;6.956;2023-04-25T00:08:23;9.97;;;4.70;;
16468;SDS011;8345;50.902;6.956;2023-04-25T00:10:51;8.00;;;4.50;;
16468;SDS011;8345;50.902;6.956;2023-04-25T00:13:19;9.47;;;4.30;;
16468;SDS011;8345;50.902;6.956;2023-04-25T00:15:47;7.53;;;4.27;;
16468;SDS011;8345;50.902;6.956;2023-04-25T00:18:14;7.13;;;4.17;;
16468;SDS011;8345;50.902;6.956;2023-04-25T00:20:42;12.60;;;4.47;;
16468;SDS011;8345;50.902;6.956;2023-04-25T00:23:11;8.93;;;4.27;;
16468;SDS011;8345;50.902;6.956;2023-04-25T00:25:42;10.13;;;4.63;;
16468;SDS011;8345;50.902;6.956;2023-04-25T00:28:11;7.23;;;4.00;;
16468;SDS011;8345;50.902;6.956;2023-04-25T00:30:38;11.03;;;4.40;;
16468;SDS011;8345;50.902;6.956;2023-04-25T00:33:05;7.17;;;4.23;;
16468;SDS011;8345;50.902;6.956;2023-04-25T00:35:33;10.57;;;4.73;;
16468;SDS011;8345;50.902;6.956;2023-04-25T00:38:00;8.53;;;4.10;;
16468;SDS011;8345;50.902;6.956;2023-04-25T00:40:27;9.77;;;4.73;;
16468;SDS011;8345;50.902;6.956;2023-04-25T00:42:55;10.70;;;5.10;;
16468;SDS011;8345;50.902;6.956;2023-04-25T00:45:23;7.80;;;4.00;;
16468;SDS011;8345;50.902;6.956;2023-04-25T00:47:54;9.20;;;4.50;;
16468;SDS011;8345;50.902;6.956;2023-04-25T00:50:21;6.53;;;4.00;;
16468;SDS011;8345;50.902;6.956;2023-04-25T00:52:48;7.53;;;4.33;;
16468;SDS011;8345;50.902;6.956;2023-04-25T00:55:16;13.10;;;5.00;;
16468;SDS011;8345;50.902;6.956;2023-04-25T00:57:43;11.63;;;4.73;;
16468;SDS011;8345;50.902;6.956;2023-04-25T01:00:10;13.07;;;4.27;;
16468;SDS011;8345;50.902;6.956;2023-04-25T01:02:39;13.20;;;4.90;;
16468;SDS011;8345;50.902;6.956;2023-04-25T01:05:07;8.10;;;4.23;;
16468;SDS011;8345;50.902;6.956;2023-04-25T01:07:34;8.73;;;4.13;;
16468;SDS011;8345;50.902;6.956;2023-04-25T01:10:02;9.07;;;4.60;;
16468;SDS011;8345;50.902;6.956;2023-04-25T01:12:29;8.33;;;4.13;;
16468;SDS011;8345;50.902;6.956;2023-04-25T01:14:57;9.20;;;4.60;;
16468;SDS011;8345;50.902;6.956;2023-04-25T01:17:24;8.47;;;4.70;;
16468;SDS011;8345;50.902;6.956;2023-04-25T01:19:53;9.03;;;4.23;;
16468;SDS011;8345;50.902;6.956;2023-04-25T01:22:22;8.97;;;4.10;;
16468;SDS011;8345;50.902;6.956;2023-04-25T01:24:49;11.43;;;4.70;;
16468;SDS011;8345;50.902;6.956;2023-04-25T01:27:16;9.77;;;4.80;;
16468;SDS011;8345;50.902;6.956;2023-04-25T01:29:45;8.53;;;4.40;;
16468;SDS011;8345;50.902;6.956;2023-04-25T01:32:13;10.80;;;4.57;;
16468;SDS011;8345;50.902;6.956;2023-04-25T01:34:40;9.50;;;4.77;;
16468;SDS011;8345;50.902;6.956;2023-04-25T01:37:08;13.30;;;5.33;;
16468;SDS011;8345;50.902;6.956;2023-04-25T01:39:36;11.03;;;5.23;;
16468;SDS011;8345;50.902;6.956;2023-04-25T01:42:03;8.03;;;4.67;;
16468;SDS011;8345;50.902;6.956;2023-04-25T01:44:31;9.37;;;5.07;;
16468;SDS011;8345;50.902;6.956;2023-04-25T01:46:58;7.47;;;5.07;;
16468;SDS011;8345;50.902;6.956;2023-04-25T01:49:25;10.23;;;5.43;;
16468;SDS011;8345;50.902;6.956;2023-04-25T01:51:52;11.23;;;5.33;;
16468;SDS011;8345;50.902;6.956;2023-04-25T01:54:20;10.87;;;5.10;;
16468;SDS011;8345;50.902;6.956;2023-04-25T01:56:51;12.50;;;5.10;;
16468;SDS011;8345;50.902;6.956;2023-04-25T01:59:18;13.47;;;4.90;;
16468;SDS011;8345;50.902;6.956;2023-04-25T02:01:46;12.40;;;5.40;;
16468;SDS011;8345;50.902;6.956;2023-04-25T02:04:14;11.23;;;5.37;;
16468;SDS011;8345;50.902;6.956;2023-04-25T02:06:41;9.97;;;5.37;;
16468;SDS011;8345;50.902;6.956;2023-04-25T02:09:08;9.93;;;5.10;;
16468;SDS011;8345;50.902;6.956;2023-04-25T02:11:35;12.80;;;5.07;;
16468;SDS011;8345;50.902;6.956;2023-04-25T02:14:04;6.47;;;4.33;;
16468;SDS011;8345;50.902;6.956;2023-04-25T02:16:31;13.27;;;4.90;;
16468;SDS011;8345;50.902;6.956;2023-04-25T02:18:58;6.57;;;4.27;;
16468;SDS011;8345;50.902;6.956;2023-04-25T02:21:25;7.67;;;4.60;;
16468;SDS011;8345;50.902;6.956;2023-04-25T02:23:52;12.37;;;5.07;;
16468;SDS011;8345;50.902;6.956;2023-04-25T02:26:20;9.23;;;4.63;;
16468;SDS011;8345;50.902;6.956;2023-04-25T02:28:48;14.13;;;5.43;;
16468;SDS011;8345;50.902;6.956;2023-04-25T02:31:18;9.60;;;4.67;;
16468;SDS011;8345;50.902;6.956;2023-04-25T02:33:45;12.30;;;4.73;;
16468;SDS011;8345;50.902;6.956;2023-04-25T02:36:12;12.43;;;4.63;;
16468;SDS011;8345;50.902;6.956;2023-04-25T02:38:40;10.63;;;4.07;;
16468;SDS011;8345;50.902;6.956;2023-04-25T02:41:07;11.00;;;4.63;;
16468;SDS011;8345;50.902;6.956;2023-04-25T02:43:34;7.67;;;4.20;;
16468;SDS011;8345;50.902;6.956;2023-04-25T02:46:01;9.77;;;4.40;;
16468;SDS011;8345;50.902;6.956;2023-04-25T02:48:30;7.47;;;4.10;;
16468;SDS011;8345;50.902;6.956;2023-04-25T02:50:57;7.83;;;4.00;;
16468;SDS011;8345;50.902;6.956;2023-04-25T02:53:24;8.60;;;4.27;;
16468;SDS011;8345;50.902;6.956;2023-04-25T02:55:51;7.47;;;3.87;;
16468;SDS011;8345;50.902;6.956;2023-04-25T02:58:19;6.90;;;4.13;;
16468;SDS011;8345;50.902;6.956;2023-04-25T03:00:46;9.90;;;3.90;;
16468;SDS011;8345;50.902;6.956;2023-04-25T03:03:14;7.40;;;3.90;;
16468;SDS011;8345;50.902;6.956;2023-04-25T03:05:44;7.13;;;3.60;;
16468;SDS011;8345;50.902;6.956;2023-04-25T03:08:11;10.60;;;3.80;;
16468;SDS011;8345;50.902;6.956;2023-04-25T03:10:39;5.97;;;3.40;;
16468;SDS011;8345;50.902;6.956;2023-04-25T03:13:06;7.27;;;3.97;;
16468;SDS011;8345;50.902;6.956;2023-04-25T03:15:33;9.20;;;4.10;;
16468;SDS011;8345;50.902;6.956;2023-04-25T03:18:00;8.30;;;4.07;;
16468;SDS011;8345;50.902;6.956;2023-04-25T03:20:27;10.07;;;4.70;;
16468;SDS011;8345;50.902;6.956;2023-04-25T03:22:56;9.13;;;4.00;;
16468;SDS011;8345;50.902;6.956;2023-04-25T03:25:23;7.77;;;4.20;;
16468;SDS011;8345;50.902;6.956;2023-04-25T03:27:50;5.97;;;4.00;;
16468;SDS011;8345;50.902;6.956;2023-04-25T03:30:18;11.87;;;4.67;;
16468;SDS011;8345;50.902;6.956;2023-04-25T03:32:45;7.87;;;4.80;;
16468;SDS011;8345;50.902;6.956;2023-04-25T03:35:12;9.40;;;4.10;;
16468;SDS011;8345;50.902;6.956;2023-04-25T03:37:39;7.03;;;4.33;;
16468;SDS011;8345;50.902;6.956;2023-04-25T03:40:11;9.23;;;4.07;;
16468;SDS011;8345;50.902;6.956;2023-04-25T03:42:39;8.77;;;4.60;;
16468;SDS011;8345;50.902;6.956;2023-04-25T03:45:06;8.27;;;4.27;;
16468;SDS011;8345;50.902;6.956;2023-04-25T03:47:34;7.70;;;4.70;;
16468;SDS011;8345;50.902;6.956;2023-04-25T03:50:01;8.57;;;4.23;;
16468;SDS011;8345;50.902;6.956;2023-04-25T03:52:28;10.30;;;4.60;;
16468;SDS011;8345;50.902;6.956;2023-04-25T03:54:55;6.50;;;4.30;;
16468;SDS011;8345;50.902;6.956;2023-04-25T03:57:24;11.70;;;4.90;;
16468;SDS011;8345;50.902;6.956;2023-04-25T03:59:51;10.27;;;5.27;;
16468;SDS011;8345;50.902;6.956;2023-04-25T04:02:18;8.30;;;4.80;;
16468;SDS011;8345;50.902;6.956;2023-04-25T04:04:46;11.03;;;4.50;;
16468;SDS011;8345;50.902;6.956;2023-04-25T04:07:13;8.20;;;5.10;;
16468;SDS011;8345;50.902;6.956;2023-04-25T04:09:40;9.53;;;4.30;;
16468;SDS011;8345;50.902;6.956;2023-04-25T04:12:07;11.13;;;4.90;;
16468;SDS011;8345;50.902;6.956;2023-04-25T04:14:36;10.03;;;4.53;;
16468;SDS011;8345;50.902;6.956;2023-04-25T04:17:03;10.83;;;5.27;;
16468;SDS011;8345;50.902;6.956;2023-04-25T04:19:31;8.60;;;4.27;;
16468;SDS011;8345;50.902;6.956;2023-04-25T04:21:58;10.57;;;4.77;;
16468;SDS011;8345;50.902;6.956;2023-04-25T04:24:25;10.33;;;4.87;;
16468;SDS011;8345;50.902;6.956;2023-04-25T04:26:52;10.90;;;4.57;;
16468;SDS011;8345;50.902;6.956;2023-04-25T04:29:20;9.87;;;4.67;;
16468;SDS011;8345;50.902;6.956;2023-04-25T04:31:49;10.33;;;4.93;;
16468;SDS011;8345;50.902;6.956;2023-04-25T04:34:17;8.23;;;4.77;;
16468;SDS011;8345;50.902;6.956;2023-04-25T04:36:45;8.73;;;4.67;;
16468;SDS011;8345;50.902;6.956;2023-04-25T04:39:12;10.03;;;4.70;;
16468;SDS011;8345;50.902;6.956;2023-04-25T04:41:40;14.73;;;5.07;;
16468;SDS011;8345;50.902;6.956;2023-04-25T04:44:07;10.47;;;4.70;;
16468;SDS011;8345;50.902;6.956;2023-04-25T04:46:35;12.63;;;5.30;;
16468;SDS011;8345;50.902;6.956;2023-04-25T04:49:08;10.23;;;4.33;;
16468;SDS011;8345;50.902;6.956;2023-04-25T04:51:35;8.37;;;4.30;;
16468;SDS011;8345;50.902;6.956;2023-04-25T04:54:02;10.33;;;4.50;;
16468;SDS011;8345;50.902;6.956;2023-04-25T04:56:30;12.40;;;5.00;;
16468;SDS011;8345;50.902;6.956;2023-04-25T04:58:58;11.13;;;5.10;;
16468;SDS011;8345;50.902;6.956;2023-04-25T05:01:26;12.27;;;5.33;;
16468;SDS011;8345;50.902;6.956;2023-04-25T05:03:54;11.63;;;4.97;;
16468;SDS011;8345;50.902;6.956;2023-04-25T05:06:29;8.73;;;5.00;;
16468;SDS011;8345;50.902;6.956;2023-04-25T05:08:58;11.10;;;5.40;;
16468;SDS011;8345;50.902;6.956;2023-04-25T05:11:27;12.30;;;5.20;;
16468;SDS011;8345;50.902;6.956;2023-04-25T05:13:55;12.53;;;5.17;;
16468;SDS011;8345;50.902;6.956;2023-04-25T05:16:22;11.53;;;5.30;;
16468;SDS011;8345;50.902;6.956;2023-04-25T05:18:49;10.57;;;4.67;;
16468;SDS011;8345;50.902;6.956;2023-04-25T05:21:16;14.57;;;5.50;;
16468;SDS011;8345;50.902;6.956;2023-04-25T05:23:45;14.97;;;5.47;;
16468;SDS011;8345;50.902;6.956;2023-04-25T05:26:12;11.57;;;5.27;;
16468;SDS011;8345;50.902;6.956;2023-04-25T05:28:39;10.73;;;5.70;;
16468;SDS011;8345;50.902;6.956;2023-04-25T05:31:07;11.97;;;5.43;;
16468;SDS011;8345;50.902;6.956;2023-04-25T05:33:34;14.73;;;5.70;;
16468;SDS011;8345;50.902;6.956;2023-04-25T05:36:02;11.23;;;5.40;;
16468;SDS011;8345;50.902;6.956;2023-04-25T05:38:29;14.50;;;5.13;;
16468;SDS011;8345;50.902;6.956;2023-04-25T05:40:58;15.87;;;5.90;;
16468;SDS011;8345;50.902;6.956;2023-04-25T05:43:25;13.30;;;5.30;;
16468;SDS011;8345;50.902;6.956;2023-04-25T05:45:52;9.13;;;4.90;;
16468;SDS011;8345;50.902;6.956;2023-04-25T05:48:19;13.77;;;5.37;;
16468;SDS011;8345;50.902;6.956;2023-04-25T05:50:46;13.03;;;4.57;;
16468;SDS011;8345;50.902;6.956;2023-04-25T05:53:13;11.63;;;5.40;;
16468;SDS011;8345;50.902;6.956;2023-04-25T05:55:41;14.87;;;5.87;;
16468;SDS011;8345;50.902;6.956;2023-04-25T05:58:09;11.27;;;4.80;;
16468;SDS011;8345;50.902;6.956;2023-04-25T06:00:37;12.73;;;5.03;;
16468;SDS011;8345;50.902;6.956;2023-04-25T06:03:06;11.20;;;5.00;;
16468;SDS011;8345;50.902;6.956;2023-04-25T06:05:34;12.30;;;5.23;;
16468;SDS011;8345;50.902;6.956;2023-04-25T06:08:02;14.60;;;5.10;;
16468;SDS011;8345;50.902;6.956;2023-04-25T06:10:29;13.40;;;5.83;;
16468;SDS011;8345;50.902;6.956;2023-04-25T06:12:56;14.77;;;5.23;;
16468;SDS011;8345;50.902;6.956;2023-04-25T06:15:25;13.83;;;5.93;;
16468;SDS011;8345;50.902;6.956;2023-04-25T06:17:52;10.07;;;4.97;;
16468;SDS011;8345;50.902;6.956;2023-04-25T06:20:20;14.83;;;5.40;;
16468;SDS011;8345;50.902;6.956;2023-04-25T06:22:49;13.37;;;5.17;;
16468;SDS011;8345;50.902;6.956;2023-04-25T06:25:16;11.93;;;5.23;;
16468;SDS011;8345;50.902;6.956;2023-04-25T06:27:43;16.27;;;5.67;;
16468;SDS011;8345;50.902;6.956;2023-04-25T06:30:11;13.40;;;5.40;;
16468;SDS011;8345;50.902;6.956;2023-04-25T06:32:39;14.53;;;5.00;;
16468;SDS011;8345;50.902;6.956;2023-04-25T06:35:07;14.03;;;4.47;;
16468;SDS011;8345;50.902;6.956;2023-04-25T06:37:35;11.63;;;4.70;;
16468;SDS011;8345;50.902;6.956;2023-04-25T06:40:02;15.53;;;4.97;;
16468;SDS011;8345;50.902;6.956;2023-04-25T06:42:29;11.53;;;4.83;;
16468;SDS011;8345;50.902;6.956;2023-04-25T06:44:57;12.20;;;5.50;;
16468;SDS011;8345;50.902;6.956;2023-04-25T06:47:24;14.93;;;4.83;;
16468;SDS011;8345;50.902;6.956;2023-04-25T06:49:52;15.03;;;5.77;;
16468;SDS011;8345;50.902;6.956;2023-04-25T06:52:20;15.33;;;5.13;;
16468;SDS011;8345;50.902;6.956;2023-04-25T06:54:47;12.30;;;5.07;;
16468;SDS011;8345;50.902;6.956;2023-04-25T06:57:14;12.90;;;5.60;;
16468;SDS011;8345;50.902;6.956;2023-04-25T06:59:41;10.90;;;5.20;;
16468;SDS011;8345;50.902;6.956;2023-04-25T07:02:09;11.00;;;5.30;;
16468;SDS011;8345;50.902;6.956;2023-04-25T07:04:36;12.93;;;5.23;;
16468;SDS011;8345;50.902;6.956;2023-04-25T07:07:04;12.60;;;5.20;;
16468;SDS011;8345;50.902;6.956;2023-04-25T07:09:32;12.23;;;5.40;;
16468;SDS011;8345;50.902;6.956;2023-04-25T07:11:59;11.57;;;5.50;;
16468;SDS011;8345;50.902;6.956;2023-04-25T07:14:27;10.37;;;4.60;;
16468;SDS011;8345;50.902;6.956;2023-04-25T07:16:54;10.70;;;4.10;;
16468;SDS011;8345;50.902;6.956;2023-04-25T07:19:22;9.10;;;3.90;;
16468;SDS011;8345;50.902;6.956;2023-04-25T07:21:51;9.17;;;4.10;;
16468;SDS011;8345;50.902;6.956;2023-04-25T07:24:20;8.53;;;3.33;;
16468;SDS011;8345;50.902;6.956;2023-04-25T07:26:47;8.80;;;3.27;;
16468;SDS011;8345;50.902;6.956;2023-04-25T07:29:15;10.63;;;3.50;;
16468;SDS011;8345;50.902;6.956;2023-04-25T07:31:42;8.87;;;3.40;;
16468;SDS011;8345;50.902;6.956;2023-04-25T07:34:09;10.03;;;3.33;;
16468;SDS011;8345;50.902;6.956;2023-04-25T07:36:36;9.93;;;2.97;;
16468;SDS011;8345;50.902;6.956;2023-04-25T07:39:03;8.83;;;2.87;;
16468;SDS011;8345;50.902;6.956;2023-04-25T07:41:32;13.63;;;2.83;;
16468;SDS011;8345;50.902;6.956;2023-04-25T07:43:59;7.60;;;2.70;;
16468;SDS011;8345;50.902;6.956;2023-04-25T07:46:27;9.10;;;2.87;;
16468;SDS011;8345;50.902;6.956;2023-04-25T07:48:54;8.93;;;2.97;;
16468;SDS011;8345;50.902;6.956;2023-04-25T07:51:21;11.50;;;3.50;;
16468;SDS011;8345;50.902;6.956;2023-04-25T07:53:48;9.90;;;3.03;;
16468;SDS011;8345;50.902;6.956;2023-04-25T07:56:16;7.20;;;3.07;;
16468;SDS011;8345;50.902;6.956;2023-04-25T07:58:44;9.77;;;3.53;;
16468;SDS011;8345;50.902;6.956;2023-04-25T08:01:11;7.47;;;3.63;;
16468;SDS011;8345;50.902;6.956;2023-04-25T08:03:38;7.90;;;2.80;;
16468;SDS011;8345;50.902;6.956;2023-04-25T08:06:06;12.40;;;3.83;;
16468;SDS011;8345;50.902;6.956;2023-04-25T08:08:33;5.90;;;2.70;;
16468;SDS011;8345;50.902;6.956;2023-04-25T08:11:00;11.03;;;3.90;;
16468;SDS011;8345;50.902;6.956;2023-04-25T08:13:27;12.00;;;3.70;;
16468;SDS011;8345;50.902;6.956;2023-04-25T08:15:56;9.27;;;3.50;;
16468;SDS011;8345;50.902;6.956;2023-04-25T08:18:23;9.73;;;3.77;;
16468;SDS011;8345;50.902;6.956;2023-04-25T08:20:50;9.80;;;3.40;;
16468;SDS011;8345;50.902;6.956;2023-04-25T08:23:17;8.63;;;3.47;;
16468;SDS011;8345;50.902;6.956;2023-04-25T08:25:44;10.10;;;3.20;;
16468;SDS011;8345;50.902;6.956;2023-04-25T08:28:11;8.70;;;3.53;;
16468;SDS011;8345;50.902;6.956;2023-04-25T08:30:39;9.30;;;3.93;;
16468;SDS011;8345;50.902;6.956;2023-04-25T08:33:07;6.43;;;2.90;;
16468;SDS011;8345;50.902;6.956;2023-04-25T08:35:35;8.43;;;2.80;;
16468;SDS011;8345;50.902;6.956;2023-04-25T08:38:02;9.80;;;2.90;;
16468;SDS011;8345;50.902;6.956;2023-04-25T08:40:29;11.30;;;2.90;;
16468;SDS011;8345;50.902;6.956;2023-04-25T08:42:59;8.00;;;2.90;;
16468;SDS011;8345;50.902;6.956;2023-04-25T08:45:28;8.53;;;3.13;;
16468;SDS011;8345;50.902;6.956;2023-04-25T08:47:58;9.70;;;3.27;;
16468;SDS011;8345;50.902;6.956;2023-04-25T08:50:27;8.53;;;3.20;;
16468;SDS011;8345;50.902;6.956;2023-04-25T08:52:55;8.43;;;3.20;;
16468;SDS011;8345;50.902;6.956;2023-04-25T08:55:26;7.33;;;2.43;;
16468;SDS011;8345;50.902;6.956;2023-04-25T08:57:54;7.87;;;2.00;;
16468;SDS011;8345;50.902;6.956;2023-04-25T09:00:22;7.17;;;2.30;;
16468;SDS011;8345;50.902;6.956;2023-04-25T09:02:49;7.40;;;2.50;;
16468;SDS011;8345;50.902;6.956;2023-04-25T09:05:16;7.57;;;2.80;;
16468;SDS011;8345;50.902;6.956;2023-04-25T09:07:45;9.37;;;4.30;;
16468;SDS011;8345;50.902;6.956;2023-04-25T09:10:12;7.50;;;2.80;;
16468;SDS011;8345;50.902;6.956;2023-04-25T09:12:39;7.33;;;2.70;;
16468;SDS011;8345;50.902;6.956;2023-04-25T09:15:08;5.87;;;2.10;;
16468;SDS011;8345;50.902;6.956;2023-04-25T09:17:35;9.00;;;2.40;;
16468;SDS011;8345;50.902;6.956;2023-04-25T09:20:05;6.50;;;2.23;;
16468;SDS011;8345;50.902;6.956;2023-04-25T09:22:33;9.60;;;3.23;;
16468;SDS011;8345;50.902;6.956;2023-04-25T09:25:03;7.23;;;2.50;;
16468;SDS011;8345;50.902;6.956;2023-04-25T09:27:31;5.63;;;2.43;;
16468;SDS011;8345;50.902;6.956;2023-04-25T09:29:59;9.03;;;3.00;;
16468;SDS011;8345;50.902;6.956;2023-04-25T09:32:27;5.83;;;2.30;;
16468;SDS011;8345;50.902;6.956;2023-04-25T09:34:55;6.57;;;2.50;;
16468;SDS011;8345;50.902;6.956;2023-04-25T09:37:22;8.57;;;2.70;;
16468;SDS011;8345;50.902;6.956;2023-04-25T09:39:51;6.23;;;2.50;;
16468;SDS011;8345;50.902;6.956;2023-04-25T09:42:20;6.10;;;2.37;;
16468;SDS011;8345;50.902;6.956;2023-04-25T09:44:49;5.70;;;2.50;;
16468;SDS011;8345;50.902;6.956;2023-04-25T09:47:18;8.13;;;2.57;;
16468;SDS011;8345;50.902;6.956;2023-04-25T09:49:46;7.30;;;3.03;;
16468;SDS011;8345;50.902;6.956;2023-04-25T09:52:14;7.23;;;2.87;;
16468;SDS011;8345;50.902;6.956;2023-04-25T09:54:42;8.23;;;3.00;;
16468;SDS011;8345;50.902;6.956;2023-04-25T09:57:10;5.80;;;2.20;;
16468;SDS011;8345;50.902;6.956;2023-04-25T09:59:42;5.73;;;2.23;;
16468;SDS011;8345;50.902;6.956;2023-04-25T10:02:10;5.93;;;2.43;;
16468;SDS011;8345;50.902;6.956;2023-04-25T10:04:38;6.97;;;2.50;;
16468;SDS011;8345;50.902;6.956;2023-04-25T10:07:05;6.03;;;2.13;;
16468;SDS011;8345;50.902;6.956;2023-04-25T10:09:33;6.83;;;2.83;;
16468;SDS011;8345;50.902;6.956;2023-04-25T10:12:02;5.53;;;2.50;;
16468;SDS011;8345;50.902;6.956;2023-04-25T10:14:30;5.67;;;2.53;;
16468;SDS011;8345;50.902;6.956;2023-04-25T10:16:58;9.27;;;2.60;;
16468;SDS011;8345;50.902;6.956;2023-04-25T10:19:26;17.80;;;3.27;;
16468;SDS011;8345;50.902;6.956;2023-04-25T10:21:56;8.03;;;3.03;;
16468;SDS011;8345;50.902;6.956;2023-04-25T10:24:25;5.07;;;2.40;;
16468;SDS011;8345;50.902;6.956;2023-04-25T10:26:52;8.47;;;3.43;;
16468;SDS011;8345;50.902;6.956;2023-04-25T10:29:23;7.90;;;3.00;;
16468;SDS011;8345;50.902;6.956;2023-04-25T10:31:51;5.90;;;2.60;;
16468;SDS011;8345;50.902;6.956;2023-04-25T10:34:19;7.90;;;2.80;;
16468;SDS011;8345;50.902;6.956;2023-04-25T10:36:50;7.90;;;3.13;;
16468;SDS011;8345;50.902;6.956;2023-04-25T10:39:21;11.23;;;2.97;;
16468;SDS011;8345;50.902;6.956;2023-04-25T10:41:52;7.07;;;2.63;;
16468;SDS011;8345;50.902;6.956;2023-04-25T10:44:20;3.43;;;2.10;;
16468;SDS011;8345;50.902;6.956;2023-04-25T10:46:47;4.50;;;2.03;;
16468;SDS011;8345;50.902;6.956;2023-04-25T10:49:32;5.63;;;2.00;;
16468;SDS011;8345;50.902;6.956;2023-04-25T10:52:18;7.17;;;2.07;;
16468;SDS011;8345;50.902;6.956;2023-04-25T10:54:46;7.37;;;2.33;;
16468;SDS011;8345;50.902;6.956;2023-04-25T10:57:29;4.57;;;2.20;;
16468;SDS011;8345;50.902;6.956;2023-04-25T11:00:00;5.23;;;2.47;;
16468;SDS011;8345;50.902;6.956;2023-04-25T11:02:31;6.00;;;2.20;;
16468;SDS011;8345;50.902;6.956;2023-04-25T11:05:00;6.30;;;2.43;;
16468;SDS011;8345;50.902;6.956;2023-04-25T11:07:31;4.90;;;2.30;;
16468;SDS011;8345;50.902;6.956;2023-04-25T11:10:00;8.33;;;2.50;;
16468;SDS011;8345;50.902;6.956;2023-04-25T11:12:27;7.30;;;2.57;;
16468;SDS011;8345;50.902;6.956;2023-04-25T11:15:00;7.00;;;2.00;;
16468;SDS011;8345;50.902;6.956;2023-04-25T11:17:27;7.93;;;2.10;;
16468;SDS011;8345;50.902;6.956;2023-04-25T11:19:55;3.73;;;1.90;;
16468;SDS011;8345;50.902;6.956;2023-04-25T11:22:24;6.43;;;2.03;;
16468;SDS011;8345;50.902;6.956;2023-04-25T11:24:53;10.67;;;2.67;;
16468;SDS011;8345;50.902;6.956;2023-04-25T11:27:20;4.60;;;1.70;;
16468;SDS011;8345;50.902;6.956;2023-04-25T11:29:49;3.73;;;2.30;;
16468;SDS011;8345;50.902;6.956;2023-04-25T11:32:17;3.73;;;1.60;;
16468;SDS011;8345;50.902;6.956;2023-04-25T11:34:45;4.43;;;1.90;;
16468;SDS011;8345;50.902;6.956;2023-04-25T11:37:13;5.33;;;1.77;;
16468;SDS011;8345;50.902;6.956;2023-04-25T11:39:45;4.37;;;1.93;;
16468;SDS011;8345;50.902;6.956;2023-04-25T11:42:12;8.07;;;2.10;;
16468;SDS011;8345;50.902;6.956;2023-04-25T11:44:39;5.27;;;1.90;;
16468;SDS011;8345;50.902;6.956;2023-04-25T11:47:07;4.70;;;2.07;;
16468;SDS011;8345;50.902;6.956;2023-04-25T11:49:34;5.87;;;2.30;;
16468;SDS011;8345;50.902;6.956;2023-04-25T11:52:02;5.07;;;1.70;;
16468;SDS011;8345;50.902;6.956;2023-04-25T11:54:29;5.30;;;2.07;;
16468;SDS011;8345;50.902;6.956;2023-04-25T11:56:58;5.67;;;2.00;;
16468;SDS011;8345;50.902;6.956;2023-04-25T11:59:26;3.27;;;1.80;;
16468;SDS011;8345;50.902;6.956;2023-04-25T12:01:53;5.67;;;2.10;;
16468;SDS011;8345;50.902;6.956;2023-04-25T12:04:29;6.70;;;2.47;;
16468;SDS011;8345;50.902;6.956;2023-04-25T12:06:57;4.93;;;2.27;;
16468;SDS011;8345;50.902;6.956;2023-04-25T12:09:29;4.83;;;2.03;;
16468;SDS011;8345;50.902;6.956;2023-04-25T12:11:58;4.90;;;1.90;;
16468;SDS011;8345;50.902;6.956;2023-04-25T12:14:28;6.60;;;1.90;;
16468;SDS011;8345;50.902;6.956;2023-04-25T12:16:56;4.53;;;1.70;;
16468;SDS011;8345;50.902;6.956;2023-04-25T12:19:24;4.37;;;1.60;;
16468;SDS011;8345;50.902;6.956;2023-04-25T12:21:52;5.47;;;1.90;;
16468;SDS011;8345;50.902;6.956;2023-04-25T12:24:21;4.17;;;1.70;;
16468;SDS011;8345;50.902;6.956;2023-04-25T12:26:50;3.17;;;1.80;;
16468;SDS011;8345;50.902;6.956;2023-04-25T12:29:20;4.20;;;1.83;;
16468;SDS011;8345;50.902;6.956;2023-04-25T12:31:47;5.50;;;3.40;;
16468;SDS011;8345;50.902;6.956;2023-04-25T12:34:15;5.40;;;2.50;;
16468;SDS011;8345;50.902;6.956;2023-04-25T12:36:42;4.53;;;2.30;;
16468;SDS011;8345;50.902;6.956;2023-04-25T12:39:13;4.77;;;1.87;;
16468;SDS011;8345;50.902;6.956;2023-04-25T12:41:41;6.03;;;2.17;;
16468;SDS011;8345;50.902;6.956;2023-04-25T12:44:08;5.70;;;2.07;;
16468;SDS011;8345;50.902;6.956;2023-04-25T12:46:37;4.90;;;1.80;;
16468;SDS011;8345;50.902;6.956;2023-04-25T12:49:04;3.67;;;1.83;;
16468;SDS011;8345;50.902;6.956;2023-04-25T12:51:32;3.67;;;1.90;;
16468;SDS011;8345;50.902;6.956;2023-04-25T12:53:59;4.00;;;1.80;;
16468;SDS011;8345;50.902;6.956;2023-04-25T12:56:27;4.67;;;2.13;;
16468;SDS011;8345;50.902;6.956;2023-04-25T12:58:54;5.53;;;2.00;;
16468;SDS011;8345;50.902;6.956;2023-04-25T13:01:21;2.97;;;1.90;;
16468;SDS011;8345;50.902;6.956;2023-04-25T13:03:50;5.53;;;2.03;;
16468;SDS011;8345;50.902;6.956;2023-04-25T13:06:18;6.60;;;1.93;;
16468;SDS011;8345;50.902;6.956;2023-04-25T13:08:45;4.00;;;1.63;;
16468;SDS011;8345;50.902;6.956;2023-04-25T13:11:13;4.70;;;2.17;;
16468;SDS011;8345;50.902;6.956;2023-04-25T13:13:40;9.33;;;2.20;;
16468;SDS011;8345;50.902;6.956;2023-04-25T13:16:08;5.50;;;2.23;;
16468;SDS011;8345;50.902;6.956;2023-04-25T13:18:35;5.23;;;1.90;;
16468;SDS011;8345;50.902;6.956;2023-04-25T13:21:03;3.30;;;1.80;;
16468;SDS011;8345;50.902;6.956;2023-04-25T13:23:31;5.67;;;2.20;;
16468;SDS011;8345;50.902;6.956;2023-04-25T13:25:58;5.93;;;2.17;;
16468;SDS011;8345;50.902;6.956;2023-04-25T13:28:26;4.57;;;2.10;;
16468;SDS011;8345;50.902;6.956;2023-04-25T13:30:53;4.87;;;1.80;;
16468;SDS011;8345;50.902;6.956;2023-04-25T13:33:21;3.83;;;1.90;;
16468;SDS011;8345;50.902;6.956;2023-04-25T13:35:48;3.80;;;1.43;;
16468;SDS011;8345;50.902;6.956;2023-04-25T13:38:20;4.00;;;3.30;;
16468;SDS011;8345;50.902;6.956;2023-04-25T13:40:48;4.87;;;1.70;;
16468;SDS011;8345;50.902;6.956;2023-04-25T13:43:17;4.83;;;1.80;;
16468;SDS011;8345;50.902;6.956;2023-04-25T13:45:44;5.27;;;1.70;;
16468;SDS011;8345;50.902;6.956;2023-04-25T13:48:12;4.33;;;1.83;;
16468;SDS011;8345;50.902;6.956;2023-04-25T13:50:39;2.60;;;1.73;;
16468;SDS011;8345;50.902;6.956;2023-04-25T13:53:06;4.37;;;1.53;;
16468;SDS011;8345;50.902;6.956;2023-04-25T13:55:35;4.93;;;1.87;;
16468;SDS011;8345;50.902;6.956;2023-04-25T13:58:03;4.17;;;1.37;;
16468;SDS011;8345;50.902;6.956;2023-04-25T14:00:33;2.70;;;1.50;;
16468;SDS011;8345;50.902;6.956;2023-04-25T14:03:00;3.20;;;1.53;;
16468;SDS011;8345;50.902;6.956;2023-04-25T14:05:32;2.43;;;1.30;;
16468;SDS011;8345;50.902;6.956;2023-04-25T14:08:02;3.00;;;1.10;;
16468;SDS011;8345;50.902;6.956;2023-04-25T14:10:30;3.03;;;1.30;;
16468;SDS011;8345;50.902;6.956;2023-04-25T14:12:58;2.27;;;1.43;;
16468;SDS011;8345;50.902;6.956;2023-04-25T14:15:28;4.77;;;1.30;;
16468;SDS011;8345;50.902;6.956;2023-04-25T14:17:55;4.77;;;1.67;;
16468;SDS011;8345;50.902;6.956;2023-04-25T14:20:22;2.33;;;1.53;;
16468;SDS011;8345;50.902;6.956;2023-04-25T14:22:50;3.60;;;1.17;;
16468;SDS011;8345;50.902;6.956;2023-04-25T14:25:19;2.63;;;1.53;;
16468;SDS011;8345;50.902;6.956;2023-04-25T14:27:46;4.80;;;1.90;;
16468;SDS011;8345;50.902;6.956;2023-04-25T14:30:16;1.97;;;1.40;;
16468;SDS011;8345;50.902;6.956;2023-04-25T14:32:43;2.20;;;1.40;;
16468;SDS011;8345;50.902;6.956;2023-04-25T14:35:11;1.93;;;1.30;;
16468;SDS011;8345;50.902;6.956;2023-04-25T14:37:38;3.37;;;1.60;;
16468;SDS011;8345;50.902;6.956;2023-04-25T14:40:05;2.43;;;1.03;;
16468;SDS011;8345;50.902;6.956;2023-04-25T14:42:34;2.93;;;1.07;;
16468;SDS011;8345;50.902;6.956;2023-04-25T14:45:02;3.80;;;1.33;;
16468;SDS011;8345;50.902;6.956;2023-04-25T14:47:30;1.70;;;0.87;;
16468;SDS011;8345;50.902;6.956;2023-04-25T14:49:57;3.37;;;1.10;;
16468;SDS011;8345;50.902;6.956;2023-04-25T14:52:25;1.93;;;1.00;;
16468;SDS011;8345;50.902;6.956;2023-04-25T14:54:52;2.57;;;1.03;;
16468;SDS011;8345;50.902;6.956;2023-04-25T14:57:19;2.00;;;1.10;;
16468;SDS011;8345;50.902;6.956;2023-04-25T14:59:46;3.17;;;1.27;;
16468;SDS011;8345;50.902;6.956;2023-04-25T15:02:14;2.97;;;1.40;;